Weather at Maydown Heliport

Public forecast

Using degrees Celsius for public forecast. Weather courtesy of forecast.io.

Closest aviation weather report (METAR) to Maydown Heliport

Report is more than 6 hours old.

Closest report is City of Derry Airport, 2.6 nm (4.8 km) ENE.

2024/06/24 20:20 (retrieved 7 hours ago)

EGAE 242020Z 22009KT 9999 FEW038 BKN049 23/15 Q1014

Closest aviation forecast (TAF) to Maydown Heliport

Forecast is more than 6 hours old.

Closest forecast is Belfast International Airport, 41.8 nm (77.3 km) ESE.

2024/06/24 18:00 (retrieved 9 hours ago)

TAF EGAA 241656Z 2418/2518 20010KT 9999 SCT030 BECMG 2422/2501 27005KT TEMPO 2504/2512 BKN012 PROB30 TEMPO 2507/2511 BKN008